createdAt,value
2023-05-13T00:04:52.406Z,321.36
2023-05-13T00:10:19.648Z,322.29
2023-05-13T00:15:11.945Z,323.24
2023-05-13T00:20:11.947Z,325.14
2023-05-13T00:25:11.864Z,326.74
2023-05-13T00:30:11.845Z,326.74
2023-05-13T00:35:11.716Z,328.03
2023-05-13T00:40:11.707Z,327.71
2023-05-13T00:45:11.995Z,329.33
2023-05-13T00:50:11.550Z,330.32
2023-05-13T00:55:11.464Z,331.30
2023-05-13T01:00:11.438Z,331.97
2023-05-13T01:05:11.348Z,330.64
2023-05-13T01:10:11.328Z,333.97
2023-05-13T01:15:11.189Z,336.68
2023-05-13T01:20:11.174Z,337.37
2023-05-13T01:25:11.073Z,337.71
2023-05-13T01:30:11.036Z,338.06
2023-05-13T01:35:10.938Z,337.37
2023-05-13T01:40:24.154Z,341.18
2023-05-13T01:45:11.802Z,340.48
2023-05-13T01:50:10.726Z,340.14
2023-05-13T01:55:10.706Z,339.44
2023-05-13T02:00:10.632Z,340.48
2023-05-13T02:05:10.523Z,341.54
2023-05-13T02:10:10.451Z,341.54
2023-05-13T02:15:10.417Z,343.66
2023-05-13T02:20:10.320Z,343.30
2023-05-13T02:25:10.271Z,342.95
2023-05-13T02:30:10.242Z,342.59
2023-05-13T02:35:10.183Z,341.89
2023-05-13T02:40:10.071Z,343.30
2023-05-13T02:45:10.033Z,344.37
2023-05-13T02:50:09.925Z,345.09
2023-05-13T02:55:09.946Z,345.09
2023-05-13T03:00:09.832Z,343.66
2023-05-13T03:05:09.743Z,345.81
2023-05-13T03:10:09.747Z,345.09
2023-05-13T03:15:09.620Z,345.45
2023-05-13T03:20:09.549Z,347.26
2023-05-13T03:25:09.526Z,345.81
2023-05-13T03:30:09.414Z,346.89
2023-05-13T03:35:09.401Z,346.17
2023-05-13T03:40:09.234Z,348.35
2023-05-13T03:45:09.236Z,346.89
2023-05-13T03:50:09.115Z,350.93
2023-05-13T03:55:09.113Z,347.98
2023-05-13T04:00:08.974Z,349.08
2023-05-13T04:05:08.963Z,350.93
2023-05-13T04:10:08.906Z,349.08
2023-05-13T04:15:40.144Z,348.71
2023-05-13T04:20:32.550Z,350.19
2023-05-13T04:25:32.522Z,346.17
2023-05-13T04:30:33.124Z,344.37
2023-05-13T04:35:32.378Z,347.26
2023-05-13T04:40:32.330Z,347.26
2023-05-13T04:45:32.222Z,348.35
2023-05-13T04:50:32.185Z,344.37
2023-05-13T04:55:32.099Z,345.45
2023-05-13T05:00:32.100Z,344.37
2023-05-13T05:05:31.980Z,344.01
2023-05-13T05:10:31.912Z,343.30
2023-05-13T05:15:31.816Z,343.30
2023-05-13T05:20:31.744Z,342.24
2023-05-13T05:25:31.680Z,339.09
2023-05-13T05:30:31.650Z,338.75
2023-05-13T05:35:31.566Z,338.75
2023-05-13T05:40:31.517Z,338.75
2023-05-13T05:45:31.413Z,338.06
2023-05-13T05:50:31.377Z,333.97
2023-05-13T05:55:31.272Z,329.66
2023-05-13T06:00:31.214Z,332.30
2023-05-13T06:05:31.308Z,325.46
2023-05-13T06:10:31.069Z,322.29
2023-05-13T06:15:31.044Z,322.61
2023-05-13T06:20:31.075Z,323.24
2023-05-13T06:25:30.882Z,321.98
2023-05-13T06:30:30.852Z,321.98
2023-05-13T06:35:30.756Z,321.98
2023-05-13T06:40:30.709Z,321.36
2023-05-13T06:45:30.622Z,320.43
2023-05-13T06:50:30.552Z,320.74
2023-05-13T06:55:30.600Z,317.97
2023-05-13T07:00:30.490Z,319.81
2023-05-13T07:05:30.372Z,319.19
2023-05-13T07:10:30.317Z,316.76
2023-05-13T07:15:30.325Z,312.58
2023-05-13T07:20:30.188Z,310.53
2023-05-13T07:25:30.090Z,303.99
2023-05-13T07:30:30.080Z,297.71
2023-05-13T07:35:29.977Z,290.93
2023-05-13T07:40:29.924Z,272.30
2023-05-13T07:45:29.839Z,256.52
2023-05-13T07:50:29.792Z,238.62
2023-05-13T07:55:29.838Z,224.72
2023-05-13T08:00:29.682Z,211.41
2023-05-13T08:05:29.587Z,199.58
2023-05-13T08:10:29.560Z,188.47
2023-05-13T08:15:29.446Z,180.29
2023-05-13T08:20:29.431Z,173.43
2023-05-13T08:25:29.322Z,165.93
2023-05-13T08:30:29.333Z,162.10
2023-05-13T08:35:29.176Z,158.45
2023-05-13T08:40:29.139Z,154.39
2023-05-13T08:45:29.054Z,152.71
2023-05-13T08:50:29.013Z,150.67
2023-05-13T08:55:28.904Z,147.90
2023-05-13T09:00:28.876Z,147.25
2023-05-13T09:05:29.000Z,146.74
2023-05-13T09:10:28.760Z,145.35
2023-05-13T09:15:28.720Z,143.49
2023-05-13T09:20:28.657Z,141.21
2023-05-13T09:25:28.542Z,139.81
2023-05-13T09:30:28.501Z,140.62
2023-05-13T09:35:28.661Z,140.04
2023-05-13T09:40:28.383Z,139.12
2023-05-13T09:45:28.268Z,138.66
2023-05-13T09:50:28.258Z,138.77
2023-05-13T09:55:28.148Z,138.21
2023-05-13T10:00:32.792Z,137.53
2023-05-13T10:05:29.028Z,136.20
2023-05-13T10:10:27.995Z,134.57
2023-05-13T10:15:27.903Z,131.22
2023-05-13T10:20:27.923Z,130.51
2023-05-13T10:25:27.802Z,129.31
2023-05-13T10:30:27.750Z,130.31
2023-05-13T10:35:27.644Z,131.32
2023-05-13T10:40:27.581Z,129.51
2023-05-13T10:45:27.530Z,129.71
2023-05-13T10:50:27.469Z,128.52
2023-05-13T10:55:27.422Z,128.91
2023-05-13T11:00:27.369Z,131.22
2023-05-13T11:05:27.234Z,134.14
2023-05-13T11:10:27.170Z,138.77
2023-05-13T11:15:27.084Z,142.65
2023-05-13T11:20:27.059Z,147.12
2023-05-13T11:25:27.006Z,151.48
2023-05-13T11:30:26.916Z,156.98
2023-05-13T11:35:26.861Z,161.64
2023-05-13T11:40:26.791Z,163.52
2023-05-13T11:45:26.713Z,162.26
2023-05-13T11:50:26.702Z,162.41
2023-05-13T11:55:26.604Z,156.68
2023-05-13T12:00:26.513Z,159.20
2023-05-13T12:05:27.095Z,163.04
2023-05-13T12:10:26.391Z,163.04
2023-05-13T12:15:26.521Z,162.26
2023-05-13T12:20:26.273Z,164.79
2023-05-13T12:25:26.202Z,169.09
2023-05-13T12:30:26.140Z,172.19
2023-05-13T12:35:26.054Z,174.51
2023-05-13T12:40:26.031Z,178.95
2023-05-13T12:45:25.928Z,180.48
2023-05-13T12:50:25.906Z,183.42
2023-05-13T12:55:25.800Z,184.22
2023-05-13T13:00:25.773Z,185.62
2023-05-13T13:05:25.694Z,187.09
2023-05-13T13:10:25.619Z,189.12
2023-05-13T13:15:25.548Z,190.42
2023-05-13T13:20:25.528Z,191.07
2023-05-13T13:25:25.413Z,193.53
2023-05-13T13:30:25.391Z,195.24
2023-05-13T13:35:25.295Z,198.27
2023-05-13T13:40:25.222Z,199.58
2023-05-13T13:45:25.177Z,200.79
2023-05-13T13:50:25.106Z,203.37
2023-05-13T13:55:25.049Z,205.90
2023-05-13T14:00:25.073Z,210.60
2023-05-13T14:05:24.885Z,215.39
2023-05-13T14:10:24.830Z,221.27
2023-05-13T14:15:24.758Z,227.03
2023-05-13T14:20:24.781Z,229.22
2023-05-13T14:25:24.681Z,230.82
2023-05-13T14:30:24.775Z,234.57
2023-05-13T14:35:24.524Z,234.74
2023-05-13T14:40:24.549Z,236.41
2023-05-13T14:45:24.364Z,238.45
2023-05-13T14:50:24.477Z,241.40
2023-05-13T14:55:24.254Z,242.28
2023-05-13T15:00:24.234Z,243.17
2023-05-13T15:05:24.085Z,242.28
2023-05-13T15:10:24.264Z,242.81
2023-05-13T15:15:23.967Z,244.24
2023-05-13T15:20:24.198Z,243.17
2023-05-13T15:25:23.793Z,243.88
2023-05-13T15:30:23.915Z,243.52
2023-05-13T15:35:23.687Z,242.10
2023-05-13T15:40:23.756Z,243.88
2023-05-13T15:45:23.557Z,244.42
2023-05-13T15:50:23.956Z,243.88
2023-05-13T15:55:23.481Z,249.95
2023-05-13T16:00:23.645Z,251.65
2023-05-13T16:05:23.279Z,252.03
2023-05-13T16:10:23.499Z,252.80
2023-05-13T16:15:23.185Z,254.35
2023-05-13T16:20:23.540Z,253.19
2023-05-13T16:25:24.282Z,253.77
2023-05-13T16:30:23.252Z,255.13
2023-05-13T16:35:22.983Z,255.92
2023-05-13T16:40:23.177Z,253.77
2023-05-13T16:45:22.947Z,255.72
2023-05-13T16:50:22.985Z,257.71
2023-05-13T16:55:22.752Z,256.91
2023-05-13T17:00:22.865Z,257.31
2023-05-13T17:05:22.558Z,258.11
2023-05-13T17:10:22.685Z,257.11
2023-05-13T17:15:22.410Z,257.11
2023-05-13T17:20:22.514Z,257.91
2023-05-13T17:25:22.299Z,255.33
2023-05-13T17:30:22.412Z,255.33
2023-05-13T17:35:22.132Z,255.13
2023-05-13T17:40:22.276Z,255.33
2023-05-13T17:45:22.075Z,259.73
2023-05-13T17:50:22.040Z,257.71
2023-05-13T17:55:21.881Z,257.91
2023-05-13T18:00:22.074Z,258.31
2023-05-13T18:05:21.740Z,269.87
2023-05-13T18:10:21.909Z,291.44
2023-05-13T18:15:21.645Z,309.95
2023-05-13T18:20:21.752Z,322.29
2023-05-13T18:25:21.469Z,324.18
2023-05-13T18:30:21.668Z,324.82
2023-05-13T18:35:21.347Z,324.18
2023-05-13T18:40:21.524Z,321.98
2023-05-13T18:45:21.227Z,318.58
2023-05-13T18:50:21.237Z,318.27
2023-05-13T18:55:21.118Z,319.50
2023-05-13T19:00:21.095Z,319.19
2023-05-13T19:05:21.015Z,318.58
2023-05-13T19:10:21.024Z,318.89
2023-05-13T19:15:20.865Z,319.19
2023-05-13T19:20:20.864Z,320.12
2023-05-13T19:25:20.756Z,317.36
2023-05-13T19:30:20.799Z,318.27
2023-05-13T19:35:20.560Z,317.36
2023-05-13T19:40:20.590Z,319.50
2023-05-13T19:45:20.446Z,319.81
2023-05-13T19:50:20.401Z,320.74
2023-05-13T19:55:20.309Z,321.67
2023-05-13T20:00:20.552Z,323.55
2023-05-13T20:05:20.133Z,325.46
2023-05-13T20:10:20.046Z,325.14
2023-05-13T20:15:20.042Z,326.10
2023-05-13T20:20:19.929Z,328.35
2023-05-13T20:25:19.977Z,329.01
2023-05-13T20:30:19.767Z,328.35
2023-05-13T20:35:19.734Z,331.97
2023-05-13T20:40:19.696Z,330.97
2023-05-13T20:45:19.648Z,333.97
2023-05-13T20:50:19.532Z,334.65
2023-05-13T20:55:19.476Z,336.34
2023-05-13T21:00:19.386Z,336.00
2023-05-13T21:05:19.348Z,338.06
2023-05-13T21:10:19.273Z,338.06
2023-05-13T21:15:19.205Z,335.66
2023-05-13T21:20:19.134Z,339.44
2023-05-13T21:25:19.066Z,340.48
2023-05-13T21:30:18.988Z,341.89
2023-05-13T21:35:18.933Z,345.81
2023-05-13T21:40:18.836Z,346.53
2023-05-13T21:45:18.766Z,347.98
2023-05-13T21:50:18.709Z,349.82
2023-05-13T21:55:18.689Z,350.19
2023-05-13T22:00:18.625Z,348.35
2023-05-13T22:05:18.536Z,350.93
2023-05-13T22:10:18.497Z,352.42
2023-05-13T22:15:18.433Z,349.82
2023-05-13T22:20:18.360Z,353.92
2023-05-13T22:25:18.302Z,355.44
2023-05-13T22:30:18.188Z,356.58
2023-05-13T22:35:18.130Z,356.58
2023-05-13T22:40:18.072Z,358.12
2023-05-13T22:45:18.018Z,357.74
2023-05-13T22:50:17.951Z,360.07
2023-05-13T22:55:17.870Z,361.24
2023-05-13T23:00:17.811Z,360.46
2023-05-13T23:05:17.724Z,362.82
2023-05-13T23:10:17.685Z,363.62
2023-05-13T23:15:17.621Z,362.43
2023-05-13T23:20:17.541Z,362.03
2023-05-13T23:25:17.480Z,363.62
2023-05-13T23:30:17.427Z,365.62
2023-05-13T23:35:17.354Z,362.43
2023-05-13T23:40:17.296Z,362.43
2023-05-13T23:45:17.183Z,364.82
2023-05-13T23:50:17.141Z,363.62
2023-05-13T23:55:17.064Z,366.43
